createdAt,value
2022-12-18T00:01:27.139Z,-3.77
2022-12-18T00:03:56.230Z,-3.78
2022-12-18T00:06:25.959Z,-3.78
2022-12-18T00:08:53.997Z,-3.78
2022-12-18T00:11:24.389Z,-3.79
2022-12-18T00:13:52.280Z,-3.83
2022-12-18T00:16:21.995Z,-3.86
2022-12-18T00:18:50.594Z,-3.89
2022-12-18T00:21:17.949Z,-3.91
2022-12-18T00:23:46.024Z,-3.90
2022-12-18T00:26:16.862Z,-3.92
2022-12-18T00:28:44.685Z,-3.96
2022-12-18T00:31:16.420Z,-3.96
2022-12-18T00:33:44.412Z,-3.97
2022-12-18T00:36:18.890Z,-3.97
2022-12-18T00:38:47.305Z,-3.98
2022-12-18T00:41:36.680Z,-3.98
2022-12-18T00:44:07.450Z,-3.98
2022-12-18T00:46:34.817Z,-3.99
2022-12-18T00:49:02.579Z,-3.99
2022-12-18T00:51:29.843Z,-4.00
2022-12-18T00:53:57.301Z,-3.99
2022-12-18T00:56:25.358Z,-4.00
2022-12-18T00:58:53.936Z,-3.99
2022-12-18T01:01:21.522Z,-4.03
2022-12-18T01:03:49.395Z,-4.09
2022-12-18T01:06:18.180Z,-4.12
2022-12-18T01:08:45.790Z,-4.13
2022-12-18T01:11:19.973Z,-4.16
2022-12-18T01:13:47.415Z,-4.17
2022-12-18T01:16:17.280Z,-4.18
2022-12-18T01:18:44.746Z,-4.19
2022-12-18T01:21:17.258Z,-4.22
2022-12-18T01:23:44.608Z,-4.25
2022-12-18T01:26:15.727Z,-4.28
2022-12-18T01:28:44.711Z,-4.29
2022-12-18T01:31:18.212Z,-4.29
2022-12-18T01:33:46.482Z,-4.29
2022-12-18T01:36:17.534Z,-4.28
2022-12-18T01:38:45.556Z,-4.29
2022-12-18T01:41:12.996Z,-4.30
2022-12-18T01:43:51.101Z,-4.30
2022-12-18T01:46:21.477Z,-4.33
2022-12-18T01:48:58.836Z,-4.36
2022-12-18T01:51:30.045Z,-4.37
2022-12-18T01:53:58.712Z,-4.40
2022-12-18T01:56:26.132Z,-4.41
2022-12-18T01:59:02.557Z,-4.43
2022-12-18T02:01:32.417Z,-4.46
2022-12-18T02:04:21.863Z,-4.49
2022-12-18T02:06:55.765Z,-4.49
2022-12-18T02:09:33.285Z,-4.51
2022-12-18T02:12:03.918Z,-4.50
2022-12-18T02:14:31.178Z,-4.51
2022-12-18T02:17:10.571Z,-4.51
2022-12-18T02:20:03.992Z,-4.53
2022-12-18T02:22:38.999Z,-4.53
2022-12-18T02:25:43.784Z,-4.54
2022-12-18T02:28:16.654Z,-4.57
2022-12-18T02:30:48.790Z,-4.60
2022-12-18T02:33:17.925Z,-4.63
2022-12-18T02:35:46.910Z,-4.66
2022-12-18T02:38:16.567Z,-4.73
2022-12-18T02:40:47.467Z,-4.76
2022-12-18T02:43:17.805Z,-4.80
2022-12-18T02:45:52.922Z,-4.80
2022-12-18T02:48:25.760Z,-4.81
2022-12-18T02:51:15.088Z,-4.82
2022-12-18T02:53:51.407Z,-4.84
2022-12-18T02:56:29.486Z,-4.82
2022-12-18T02:59:04.647Z,-4.83
2022-12-18T03:02:10.806Z,-4.82
2022-12-18T03:04:51.126Z,-4.79
2022-12-18T03:07:35.889Z,-4.78
2022-12-18T03:10:06.473Z,-4.74
2022-12-18T03:12:39.021Z,-4.72
2022-12-18T03:15:20.956Z,-4.69
2022-12-18T03:18:03.885Z,-4.73
2022-12-18T03:20:35.310Z,-4.74
2022-12-18T03:23:10.504Z,-4.74
2022-12-18T03:25:43.527Z,-4.74
2022-12-18T03:28:20.829Z,-4.75
2022-12-18T03:30:52.800Z,-4.78
2022-12-18T03:33:39.447Z,-4.81
2022-12-18T03:36:07.518Z,-4.82
2022-12-18T03:38:34.922Z,-4.85
2022-12-18T03:41:21.154Z,-4.90
2022-12-18T03:44:54.995Z,-4.96
2022-12-18T03:47:35.922Z,-5.01
2022-12-18T03:50:12.460Z,-5.05
2022-12-18T03:52:55.989Z,-5.09
2022-12-18T03:55:27.249Z,-5.11
2022-12-18T03:58:02.665Z,-5.13
2022-12-18T04:00:40.648Z,-5.17
2022-12-18T04:03:13.894Z,-5.18
2022-12-18T04:05:52.359Z,-5.22
2022-12-18T04:08:23.407Z,-5.25
2022-12-18T04:11:03.272Z,-5.29
2022-12-18T04:13:36.638Z,-5.32
2022-12-18T04:16:08.086Z,-5.34
2022-12-18T04:18:36.030Z,-5.37
2022-12-18T04:21:03.887Z,-5.39
2022-12-18T04:23:34.053Z,-5.44
2022-12-18T04:26:02.529Z,-5.47
2022-12-18T04:28:58.209Z,-5.53
2022-12-18T04:31:25.776Z,-5.56
2022-12-18T04:33:53.718Z,-5.57
2022-12-18T04:36:21.536Z,-5.61
2022-12-18T04:38:48.999Z,-5.63
2022-12-18T04:41:19.006Z,-5.65
2022-12-18T04:43:48.627Z,-5.68
2022-12-18T04:46:15.981Z,-5.68
2022-12-18T04:48:43.241Z,-5.69
2022-12-18T04:51:10.786Z,-5.73
2022-12-18T04:53:39.987Z,-5.74
2022-12-18T04:56:12.460Z,-5.77
2022-12-18T04:58:41.682Z,-5.79
2022-12-18T05:01:09.399Z,-5.81
2022-12-18T05:03:38.114Z,-5.83
2022-12-18T05:06:07.774Z,-5.84
2022-12-18T05:08:35.142Z,-5.86
2022-12-18T05:11:16.623Z,-5.88
2022-12-18T05:13:45.472Z,-5.90
2022-12-18T05:16:14.228Z,-5.92
2022-12-18T05:18:41.897Z,-5.93
2022-12-18T05:21:09.383Z,-5.95
2022-12-18T05:23:37.211Z,-5.96
2022-12-18T05:26:07.093Z,-5.98
2022-12-18T05:28:36.067Z,-6.00
2022-12-18T05:31:05.555Z,-6.03
2022-12-18T05:33:35.139Z,-6.04
2022-12-18T05:36:07.060Z,-6.05
2022-12-18T05:38:37.064Z,-6.04
2022-12-18T05:41:05.776Z,-6.07
2022-12-18T05:43:36.863Z,-6.08
2022-12-18T05:46:13.205Z,-6.13
2022-12-18T05:48:40.844Z,-6.16
2022-12-18T05:51:10.882Z,-6.17
2022-12-18T05:53:39.139Z,-6.19
2022-12-18T05:56:10.102Z,-6.20
2022-12-18T05:58:38.267Z,-6.21
2022-12-18T06:01:14.655Z,-6.21
2022-12-18T06:03:42.691Z,-6.21
2022-12-18T06:06:18.354Z,-6.19
2022-12-18T06:08:46.617Z,-6.20
2022-12-18T06:11:17.277Z,-6.22
2022-12-18T06:13:44.720Z,-6.23
2022-12-18T06:16:12.049Z,-6.25
2022-12-18T06:18:39.573Z,-6.25
2022-12-18T06:21:07.138Z,-6.25
2022-12-18T06:23:34.461Z,-6.27
2022-12-18T06:26:06.772Z,-6.29
2022-12-18T06:28:34.358Z,-6.31
2022-12-18T06:31:01.879Z,-6.33
2022-12-18T06:33:29.189Z,-6.35
2022-12-18T06:36:02.733Z,-6.37
2022-12-18T06:38:30.034Z,-6.38
2022-12-18T06:40:57.875Z,-6.40
2022-12-18T06:43:25.656Z,-6.43
2022-12-18T06:45:59.884Z,-6.45
2022-12-18T06:48:27.471Z,-6.48
2022-12-18T06:50:54.797Z,-6.48
2022-12-18T06:53:22.235Z,-6.49
2022-12-18T06:55:50.018Z,-6.49
2022-12-18T06:58:17.244Z,-6.51
2022-12-18T07:00:44.668Z,-6.51
2022-12-18T07:03:13.270Z,-6.53
2022-12-18T07:05:41.953Z,-6.52
2022-12-18T07:08:09.430Z,-6.53
2022-12-18T07:10:46.960Z,-6.55
2022-12-18T07:13:19.563Z,-6.55
2022-12-18T07:15:46.896Z,-6.56
2022-12-18T07:18:14.157Z,-6.55
2022-12-18T07:20:41.849Z,-6.55
2022-12-18T07:23:09.207Z,-6.55
2022-12-18T07:25:38.011Z,-6.54
2022-12-18T07:28:05.693Z,-6.56
2022-12-18T07:30:32.994Z,-6.58
2022-12-18T07:33:00.196Z,-6.57
2022-12-18T07:35:27.455Z,-6.57
2022-12-18T07:37:54.717Z,-6.58
2022-12-18T07:40:21.983Z,-6.56
2022-12-18T07:42:49.371Z,-6.57
2022-12-18T07:45:16.785Z,-6.56
2022-12-18T07:47:44.266Z,-6.56
2022-12-18T07:50:12.817Z,-6.55
2022-12-18T07:52:40.098Z,-6.54
2022-12-18T07:55:07.735Z,-6.55
2022-12-18T07:57:50.223Z,-6.53
2022-12-18T08:00:18.461Z,-6.51
2022-12-18T08:02:45.855Z,-6.48
2022-12-18T08:05:14.378Z,-6.47
2022-12-18T08:07:41.605Z,-6.45
2022-12-18T08:10:09.506Z,-6.43
2022-12-18T08:12:36.744Z,-6.43
2022-12-18T08:15:05.490Z,-6.43
2022-12-18T08:17:34.062Z,-6.41
2022-12-18T08:20:02.161Z,-6.40
2022-12-18T08:22:29.404Z,-6.38
2022-12-18T08:24:56.708Z,-6.38
2022-12-18T08:27:31.217Z,-6.36
2022-12-18T08:29:58.729Z,-6.33
2022-12-18T08:32:27.505Z,-6.30
2022-12-18T08:34:54.836Z,-6.29
2022-12-18T08:37:22.095Z,-6.27
2022-12-18T08:39:49.597Z,-6.23
2022-12-18T08:42:35.756Z,-6.20
2022-12-18T08:45:04.533Z,-6.18
2022-12-18T08:47:31.798Z,-6.12
2022-12-18T08:49:59.092Z,-6.07
2022-12-18T08:52:26.561Z,-6.03
2022-12-18T08:54:54.020Z,-5.99
2022-12-18T08:57:21.354Z,-5.95
2022-12-18T08:59:49.361Z,-5.92
2022-12-18T09:02:16.755Z,-5.90
2022-12-18T09:04:46.405Z,-5.84
2022-12-18T09:07:14.163Z,-5.82
2022-12-18T09:09:41.375Z,-5.77
2022-12-18T09:12:10.287Z,-5.72
2022-12-18T09:14:37.729Z,-5.65
2022-12-18T09:17:05.351Z,-5.58
2022-12-18T09:19:32.727Z,-5.53
2022-12-18T09:22:01.744Z,-5.49
2022-12-18T09:24:29.043Z,-5.45
2022-12-18T09:26:58.051Z,-5.40
2022-12-18T09:29:25.635Z,-5.35
2022-12-18T09:31:52.926Z,-5.33
2022-12-18T09:34:23.222Z,-5.30
2022-12-18T09:36:51.293Z,-5.25
2022-12-18T09:39:18.602Z,-5.20
2022-12-18T09:41:58.366Z,-5.15
2022-12-18T09:44:44.450Z,-5.09
2022-12-18T09:47:29.251Z,-5.01
2022-12-18T09:50:00.884Z,-4.97
2022-12-18T09:52:34.404Z,-4.95
2022-12-18T09:55:10.499Z,-4.93
2022-12-18T09:57:43.875Z,-4.89
2022-12-18T10:00:21.925Z,-4.83
2022-12-18T10:02:52.067Z,-4.81
2022-12-18T10:05:37.720Z,-4.75
2022-12-18T10:08:17.248Z,-4.68
2022-12-18T10:10:55.800Z,-4.64
2022-12-18T10:13:43.082Z,-4.57
2022-12-18T10:16:14.308Z,-4.49
2022-12-18T10:19:08.266Z,-4.39
2022-12-18T10:21:57.459Z,-4.27
2022-12-18T10:24:32.192Z,-4.16
2022-12-18T10:27:11.822Z,-4.08
2022-12-18T10:29:39.418Z,-3.98
2022-12-18T10:32:08.492Z,-3.90
2022-12-18T10:34:36.215Z,-3.82
2022-12-18T10:37:14.113Z,-3.74
2022-12-18T10:39:41.358Z,-3.65
2022-12-18T10:42:14.179Z,-3.59
2022-12-18T10:44:41.993Z,-3.51
2022-12-18T10:47:16.324Z,-3.48
2022-12-18T10:49:50.783Z,-3.47
2022-12-18T10:52:26.794Z,-3.46
2022-12-18T10:55:05.699Z,-3.46
2022-12-18T10:57:40.180Z,-3.44
2022-12-18T11:00:24.566Z,-3.44
2022-12-18T11:02:53.002Z,-3.44
2022-12-18T11:05:32.674Z,-3.46
2022-12-18T11:08:01.795Z,-3.44
2022-12-18T11:10:38.970Z,-3.42
2022-12-18T11:13:25.022Z,-3.43
2022-12-18T11:15:53.162Z,-3.45
2022-12-18T11:18:31.100Z,-3.42
2022-12-18T11:21:25.814Z,-3.41
2022-12-18T11:23:54.809Z,-3.37
2022-12-18T11:26:34.291Z,-3.35
2022-12-18T11:29:17.997Z,-3.31
2022-12-18T11:31:45.690Z,-3.27
2022-12-18T11:34:30.892Z,-3.23
2022-12-18T11:37:00.752Z,-3.19
2022-12-18T11:39:41.696Z,-3.16
2022-12-18T11:42:14.800Z,-3.18
2022-12-18T11:44:51.102Z,-3.17
2022-12-18T11:47:27.934Z,-3.13
2022-12-18T11:49:58.010Z,-3.07
2022-12-18T11:52:32.776Z,-3.02
2022-12-18T11:55:02.376Z,-2.99
2022-12-18T11:57:48.726Z,-2.91
2022-12-18T12:00:23.669Z,-2.85
2022-12-18T12:03:18.420Z,-2.82
2022-12-18T12:05:46.702Z,-2.80
2022-12-18T12:09:06.907Z,-2.74
2022-12-18T12:12:09.879Z,-2.70
2022-12-18T12:14:49.224Z,-2.68
2022-12-18T12:17:46.035Z,-2.67
2022-12-18T12:20:36.621Z,-2.65
2022-12-18T12:23:11.671Z,-2.61
2022-12-18T12:25:51.498Z,-2.59
2022-12-18T12:28:55.711Z,-2.57
2022-12-18T12:31:52.012Z,-2.53
2022-12-18T12:34:56.188Z,-2.51
2022-12-18T12:37:47.279Z,-2.48
2022-12-18T12:40:50.334Z,-2.47
2022-12-18T12:43:33.994Z,-2.45
2022-12-18T12:46:05.945Z,-2.44
2022-12-18T12:48:50.713Z,-2.42
2022-12-18T12:51:29.304Z,-2.39
2022-12-18T12:53:59.109Z,-2.37
2022-12-18T12:56:40.965Z,-2.35
2022-12-18T12:59:15.199Z,-2.33
2022-12-18T13:02:27.840Z,-2.34
2022-12-18T13:05:03.049Z,-2.32
2022-12-18T13:08:07.082Z,-2.32
2022-12-18T13:10:38.152Z,-2.33
2022-12-18T13:13:10.507Z,-2.34
2022-12-18T13:15:43.988Z,-2.32
2022-12-18T13:18:11.471Z,-2.32
2022-12-18T13:20:43.085Z,-2.33
2022-12-18T13:23:29.366Z,-2.33
2022-12-18T13:25:57.624Z,-2.31
2022-12-18T13:28:47.635Z,-2.31
2022-12-18T13:31:40.079Z,-2.31
2022-12-18T13:34:26.300Z,-2.29
2022-12-18T13:36:56.079Z,-2.30
2022-12-18T13:39:34.869Z,-2.29
2022-12-18T13:42:06.179Z,-2.28
2022-12-18T13:44:45.289Z,-2.29
2022-12-18T13:47:34.858Z,-2.30
2022-12-18T13:50:19.090Z,-2.33
2022-12-18T13:52:47.559Z,-2.35
2022-12-18T13:55:20.902Z,-2.36
2022-12-18T13:57:48.908Z,-2.36
2022-12-18T14:00:29.709Z,-2.39
2022-12-18T14:02:59.296Z,-2.40
2022-12-18T14:05:30.938Z,-2.41
2022-12-18T14:08:12.621Z,-2.43
2022-12-18T14:10:49.996Z,-2.47
2022-12-18T14:13:29.108Z,-2.50
2022-12-18T14:15:59.032Z,-2.50
2022-12-18T14:18:39.798Z,-2.50
2022-12-18T14:21:16.586Z,-2.50
2022-12-18T14:23:44.318Z,-2.53
2022-12-18T14:26:31.813Z,-2.56
2022-12-18T14:29:19.971Z,-2.58
2022-12-18T14:32:07.643Z,-2.59
2022-12-18T14:34:38.120Z,-2.59
2022-12-18T14:37:08.111Z,-2.64
2022-12-18T14:39:35.337Z,-2.64
2022-12-18T14:42:02.630Z,-2.66
2022-12-18T14:44:39.072Z,-2.67
2022-12-18T14:47:18.733Z,-2.70
2022-12-18T14:49:46.105Z,-2.75
2022-12-18T14:52:30.323Z,-2.75
2022-12-18T14:54:57.794Z,-2.77
2022-12-18T14:57:31.490Z,-2.79
2022-12-18T15:00:18.315Z,-2.80
2022-12-18T15:02:57.224Z,-2.80
2022-12-18T15:05:32.562Z,-2.80
2022-12-18T15:08:01.689Z,-2.81
2022-12-18T15:10:33.418Z,-2.82
2022-12-18T15:13:01.478Z,-2.82
2022-12-18T15:15:35.363Z,-2.81
2022-12-18T15:18:08.993Z,-2.83
2022-12-18T15:20:52.774Z,-2.83
2022-12-18T15:23:24.419Z,-2.83
2022-12-18T15:26:03.877Z,-2.84
2022-12-18T15:28:51.170Z,-2.84
2022-12-18T15:31:41.654Z,-2.83
2022-12-18T15:34:08.841Z,-2.83
2022-12-18T15:36:37.485Z,-2.85
2022-12-18T15:39:06.837Z,-2.84
2022-12-18T15:41:36.652Z,-2.84
2022-12-18T15:44:25.725Z,-2.82
2022-12-18T15:46:52.992Z,-2.82
2022-12-18T15:49:20.339Z,-2.83
2022-12-18T15:52:00.285Z,-2.83
2022-12-18T15:54:46.422Z,-2.84
2022-12-18T15:57:25.602Z,-2.85
2022-12-18T15:59:56.206Z,-2.85
2022-12-18T16:02:23.978Z,-2.84
2022-12-18T16:04:53.269Z,-2.84
2022-12-18T16:07:25.266Z,-2.83
2022-12-18T16:09:53.376Z,-2.83
2022-12-18T16:12:23.663Z,-2.83
2022-12-18T16:14:51.110Z,-2.83
2022-12-18T16:17:18.869Z,-2.84
2022-12-18T16:19:46.108Z,-2.84
2022-12-18T16:22:24.885Z,-2.82
2022-12-18T16:24:53.977Z,-2.82
2022-12-18T16:27:22.317Z,-2.82
2022-12-18T16:29:51.099Z,-2.82
2022-12-18T16:32:20.843Z,-2.82
2022-12-18T16:34:48.495Z,-2.80
2022-12-18T16:37:16.878Z,-2.80
2022-12-18T16:39:44.537Z,-2.78
2022-12-18T16:42:20.473Z,-2.76
2022-12-18T16:44:49.709Z,-2.76
2022-12-18T16:47:17.957Z,-2.76
2022-12-18T16:49:51.655Z,-2.74
2022-12-18T16:52:20.119Z,-2.72
2022-12-18T16:54:47.933Z,-2.70
2022-12-18T16:57:18.414Z,-2.68
2022-12-18T16:59:46.733Z,-2.68
2022-12-18T17:02:25.967Z,-2.67
2022-12-18T17:04:57.342Z,-2.66
2022-12-18T17:07:25.756Z,-2.66
2022-12-18T17:09:54.260Z,-2.66
2022-12-18T17:12:22.136Z,-2.66
2022-12-18T17:14:49.793Z,-2.66
2022-12-18T17:17:22.582Z,-2.66
2022-12-18T17:19:52.117Z,-2.66
2022-12-18T17:22:20.713Z,-2.67
2022-12-18T17:24:48.104Z,-2.66
2022-12-18T17:27:15.728Z,-2.65
2022-12-18T17:29:47.334Z,-2.64
2022-12-18T17:32:16.749Z,-2.64
2022-12-18T17:34:44.063Z,-2.63
2022-12-18T17:37:11.826Z,-2.62
2022-12-18T17:39:39.825Z,-2.60
2022-12-18T17:42:07.834Z,-2.60
2022-12-18T17:44:37.769Z,-2.59
2022-12-18T17:47:06.139Z,-2.59
2022-12-18T17:49:33.480Z,-2.58
2022-12-18T17:52:00.729Z,-2.57
2022-12-18T17:54:27.962Z,-2.55
2022-12-18T17:56:55.163Z,-2.53
2022-12-18T17:59:22.709Z,-2.52
2022-12-18T18:01:50.313Z,-2.50
2022-12-18T18:04:17.769Z,-2.49
2022-12-18T18:06:45.321Z,-2.48
2022-12-18T18:09:16.789Z,-2.47
2022-12-18T18:12:06.310Z,-2.45
2022-12-18T18:14:33.671Z,-2.43
2022-12-18T18:17:05.252Z,-2.42
2022-12-18T18:19:33.597Z,-2.41
2022-12-18T18:22:01.721Z,-2.39
2022-12-18T18:24:30.828Z,-2.36
2022-12-18T18:27:00.151Z,-2.36
2022-12-18T18:29:30.565Z,-2.33
2022-12-18T18:31:58.982Z,-2.33
2022-12-18T18:34:31.685Z,-2.31
2022-12-18T18:37:01.488Z,-2.30
2022-12-18T18:39:29.520Z,-2.28
2022-12-18T18:41:57.030Z,-2.27
2022-12-18T18:44:26.084Z,-2.25
2022-12-18T18:46:55.572Z,-2.25
2022-12-18T18:49:27.683Z,-2.24
2022-12-18T18:51:57.489Z,-2.24
2022-12-18T18:54:25.876Z,-2.22
2022-12-18T18:59:40.510Z,-2.18
2022-12-18T19:02:14.006Z,-2.18
2022-12-18T19:04:45.895Z,-2.17
2022-12-18T19:07:29.355Z,-2.14
2022-12-18T19:10:03.855Z,-2.13
2022-12-18T19:12:50.220Z,-2.11
2022-12-18T19:15:17.639Z,-2.09
2022-12-18T19:17:45.189Z,-2.09
2022-12-18T19:20:15.211Z,-2.08
2022-12-18T19:22:43.214Z,-2.06
2022-12-18T19:25:12.114Z,-2.05
2022-12-18T19:27:40.169Z,-2.05
2022-12-18T19:30:08.340Z,-2.03
2022-12-18T19:32:35.742Z,-2.02
2022-12-18T19:35:03.172Z,-2.02
2022-12-18T19:37:31.872Z,-2.01
2022-12-18T19:39:59.179Z,-2.01
2022-12-18T19:42:35.088Z,-2.02
2022-12-18T19:45:02.972Z,-2.01
2022-12-18T19:47:31.241Z,-2.01
2022-12-18T19:49:58.573Z,-2.00
2022-12-18T19:52:25.812Z,-1.99
2022-12-18T19:54:53.769Z,-1.97
2022-12-18T19:57:21.038Z,-1.95
2022-12-18T19:59:48.248Z,-1.94
2022-12-18T20:02:16.533Z,-1.96
2022-12-18T20:04:43.896Z,-1.93
2022-12-18T20:07:12.303Z,-1.93
2022-12-18T20:09:39.563Z,-1.93
2022-12-18T20:12:07.002Z,-1.90
2022-12-18T20:14:34.438Z,-1.90
2022-12-18T20:17:01.741Z,-1.89
2022-12-18T20:19:29.175Z,-1.86
2022-12-18T20:21:56.916Z,-1.85
2022-12-18T20:24:24.196Z,-1.83
2022-12-18T20:26:51.601Z,-1.83
2022-12-18T20:29:18.868Z,-1.81
2022-12-18T20:31:46.201Z,-1.78
2022-12-18T20:34:13.803Z,-1.77
2022-12-18T20:36:41.190Z,-1.76
2022-12-18T20:39:10.893Z,-1.74
2022-12-18T20:41:39.514Z,-1.72
2022-12-18T20:44:21.586Z,-1.69
2022-12-18T20:46:56.473Z,-1.68
2022-12-18T20:49:26.441Z,-1.66
2022-12-18T20:51:56.320Z,-1.64
2022-12-18T20:54:25.606Z,-1.60
2022-12-18T20:56:52.908Z,-1.57
2022-12-18T20:59:20.564Z,-1.54
2022-12-18T21:01:48.923Z,-1.52
2022-12-18T21:04:19.306Z,-1.50
2022-12-18T21:06:52.414Z,-1.49
2022-12-18T21:09:23.590Z,-1.47
2022-12-18T21:12:10.884Z,-1.45
2022-12-18T21:14:42.930Z,-1.43
2022-12-18T21:17:10.780Z,-1.41
2022-12-18T21:19:38.191Z,-1.40
2022-12-18T21:22:05.953Z,-1.39
2022-12-18T21:24:33.882Z,-1.37
2022-12-18T21:27:02.065Z,-1.35
2022-12-18T21:29:29.545Z,-1.34
2022-12-18T21:31:56.869Z,-1.31
2022-12-18T21:34:27.765Z,-1.32
2022-12-18T21:36:57.577Z,-1.30
2022-12-18T21:39:25.859Z,-1.29
2022-12-18T21:42:11.753Z,-1.28
2022-12-18T21:44:42.267Z,-1.27
2022-12-18T21:47:21.656Z,-1.26
2022-12-18T21:49:51.592Z,-1.26
2022-12-18T21:52:19.353Z,-1.25
2022-12-18T21:54:47.309Z,-1.24
2022-12-18T21:57:14.851Z,-1.23
2022-12-18T21:59:43.727Z,-1.22
2022-12-18T22:02:20.120Z,-1.21
2022-12-18T22:04:48.282Z,-1.19
2022-12-18T22:07:16.557Z,-1.18
2022-12-18T22:09:43.963Z,-1.15
2022-12-18T22:12:13.865Z,-1.14
2022-12-18T22:14:41.051Z,-1.12
2022-12-18T22:17:09.800Z,-1.11
2022-12-18T22:19:42.881Z,-1.09
2022-12-18T22:22:10.867Z,-1.08
2022-12-18T22:24:38.374Z,-1.05
2022-12-18T22:27:06.613Z,-1.04
2022-12-18T22:29:52.649Z,-1.01
2022-12-18T22:32:20.666Z,-0.99
2022-12-18T22:35:08.296Z,-0.96
2022-12-18T22:37:37.041Z,-0.94
2022-12-18T22:40:07.295Z,-0.93
2022-12-18T22:42:34.806Z,-0.90
2022-12-18T22:45:02.228Z,-0.88
2022-12-18T22:47:30.642Z,-0.86
2022-12-18T22:49:58.526Z,-0.84
2022-12-18T22:52:25.939Z,-0.82
2022-12-18T22:54:54.256Z,-0.80
2022-12-18T22:57:23.342Z,-0.79
2022-12-18T22:59:51.732Z,-0.79
2022-12-18T23:02:19.561Z,-0.79
2022-12-18T23:04:50.506Z,-0.77
2022-12-18T23:07:18.365Z,-0.78
2022-12-18T23:09:45.643Z,-0.79
2022-12-18T23:12:16.851Z,-0.79
2022-12-18T23:14:44.525Z,-0.79
2022-12-18T23:17:11.733Z,-0.80
2022-12-18T23:19:42.816Z,-0.79
2022-12-18T23:22:12.919Z,-0.80
2022-12-18T23:24:40.627Z,-0.80
2022-12-18T23:27:11.526Z,-0.79
2022-12-18T23:29:40.680Z,-0.79
2022-12-18T23:32:08.492Z,-0.78
2022-12-18T23:34:35.780Z,-0.77
2022-12-18T23:37:03.987Z,-0.76
2022-12-18T23:39:31.462Z,-0.75
2022-12-18T23:41:59.453Z,-0.75
2022-12-18T23:44:27.216Z,-0.73
2022-12-18T23:46:54.921Z,-0.73
2022-12-18T23:49:22.622Z,-0.73
2022-12-18T23:51:50.055Z,-0.71
2022-12-18T23:54:17.377Z,-0.70
2022-12-18T23:56:49.822Z,-0.69
2022-12-18T23:59:19.369Z,-0.68
